createdAt,value
2022-09-04T00:00:21.835Z,99.90
2022-09-04T00:03:10.642Z,99.90
2022-09-04T00:05:55.375Z,99.90
2022-09-04T00:08:53.019Z,99.90
2022-09-04T00:11:48.138Z,99.90
2022-09-04T00:14:33.001Z,99.90
2022-09-04T00:17:09.434Z,99.90
2022-09-04T00:19:51.242Z,99.90
2022-09-04T00:23:00.304Z,99.90
2022-09-04T00:25:52.898Z,99.90
2022-09-04T00:28:49.582Z,99.90
2022-09-04T00:31:40.860Z,99.90
2022-09-04T00:34:38.555Z,99.90
2022-09-04T00:37:15.251Z,99.90
2022-09-04T00:40:11.286Z,99.90
2022-09-04T00:43:09.111Z,99.90
2022-09-04T00:46:11.822Z,99.90
2022-09-04T00:49:20.553Z,99.90
2022-09-04T00:52:36.283Z,99.90
2022-09-04T00:55:41.522Z,99.90
2022-09-04T00:58:49.866Z,99.90
2022-09-04T01:01:27.154Z,99.90
2022-09-04T01:04:29.127Z,99.80
2022-09-04T01:07:29.012Z,99.50
2022-09-04T01:10:27.272Z,99.10
2022-09-04T01:13:15.022Z,99.40
2022-09-04T01:16:13.120Z,99.80
2022-09-04T01:19:13.278Z,99.90
2022-09-04T01:22:12.623Z,99.90
2022-09-04T01:25:03.030Z,99.80
2022-09-04T01:28:03.434Z,99.20
2022-09-04T01:30:49.531Z,99.00
2022-09-04T01:33:38.384Z,99.20
2022-09-04T01:36:22.265Z,99.40
2022-09-04T01:39:01.215Z,99.40
2022-09-04T01:41:48.403Z,99.50
2022-09-04T01:44:18.870Z,99.70
2022-09-04T01:47:07.241Z,99.30
2022-09-04T01:49:47.968Z,99.20
2022-09-04T01:52:46.474Z,99.00
2022-09-04T01:55:39.024Z,98.80
2022-09-04T01:58:37.582Z,98.60
2022-09-04T02:01:37.646Z,97.80
2022-09-04T02:04:23.804Z,97.30
2022-09-04T02:07:22.178Z,96.90
2022-09-04T02:10:08.660Z,97.20
2022-09-04T02:13:10.664Z,97.50
2022-09-04T02:16:07.850Z,97.20
2022-09-04T02:18:59.316Z,97.00
2022-09-04T02:21:46.292Z,96.90
2022-09-04T02:24:55.530Z,96.90
2022-09-04T02:27:51.273Z,97.00
2022-09-04T02:30:23.402Z,97.50
2022-09-04T02:33:12.880Z,97.30
2022-09-04T02:36:05.253Z,97.10
2022-09-04T02:38:57.616Z,96.80
2022-09-04T02:41:53.001Z,96.80
2022-09-04T02:44:51.778Z,96.70
2022-09-04T02:47:36.111Z,96.90
2022-09-04T02:50:34.776Z,96.20
2022-09-04T02:53:43.278Z,96.00
2022-09-04T02:56:43.963Z,95.70
2022-09-04T02:59:43.781Z,96.00
2022-09-04T03:02:44.238Z,95.40
2022-09-04T03:05:26.934Z,95.50
2022-09-04T03:08:14.741Z,94.70
2022-09-04T03:11:03.252Z,95.30
2022-09-04T03:13:48.512Z,95.60
2022-09-04T03:16:29.466Z,95.70
2022-09-04T03:19:38.773Z,95.70
2022-09-04T03:22:26.595Z,95.60
2022-09-04T03:25:28.035Z,95.30
2022-09-04T03:27:58.509Z,94.60
2022-09-04T03:30:29.974Z,95.20
2022-09-04T03:33:10.058Z,95.60
2022-09-04T03:36:06.095Z,95.00
2022-09-04T03:38:53.744Z,95.10
2022-09-04T03:41:53.243Z,95.20
2022-09-04T03:44:43.602Z,95.40
2022-09-04T03:47:36.515Z,95.60
2022-09-04T03:50:30.002Z,95.50
2022-09-04T03:53:23.269Z,94.80
2022-09-04T03:56:26.745Z,94.70
2022-09-04T03:59:22.081Z,95.80
2022-09-04T04:02:08.587Z,95.60
2022-09-04T04:05:10.742Z,94.60
2022-09-04T04:08:10.881Z,94.40
2022-09-04T04:11:00.874Z,95.40
2022-09-04T04:14:01.402Z,94.90
2022-09-04T04:17:02.226Z,94.50
2022-09-04T04:19:54.656Z,94.20
2022-09-04T04:22:53.248Z,93.80
2022-09-04T04:25:52.841Z,93.30
2022-09-04T04:29:01.885Z,92.60
2022-09-04T04:32:18.572Z,92.60
2022-09-04T04:35:26.401Z,91.30
2022-09-04T04:38:35.617Z,91.00
2022-09-04T04:42:04.554Z,90.90
2022-09-04T04:45:04.471Z,90.50
2022-09-04T04:48:05.477Z,90.00
2022-09-04T04:50:56.529Z,90.50
2022-09-04T04:53:49.183Z,90.10
2022-09-04T04:56:47.775Z,91.10
2022-09-04T04:59:51.348Z,91.10
2022-09-04T05:02:32.335Z,91.80
2022-09-04T05:05:28.752Z,92.00
2022-09-04T05:08:29.835Z,91.30
2022-09-04T05:11:10.268Z,91.60
2022-09-04T05:14:18.418Z,92.20
2022-09-04T05:17:08.971Z,91.30
2022-09-04T05:20:17.264Z,90.80
2022-09-04T05:23:09.429Z,91.20
2022-09-04T05:25:58.771Z,91.70
2022-09-04T05:28:43.423Z,91.70
2022-09-04T05:31:24.410Z,92.00
2022-09-04T05:40:06.541Z,92.40
2022-09-04T05:43:11.642Z,91.90
2022-09-04T05:46:02.640Z,91.50
2022-09-04T05:49:02.464Z,91.50
2022-09-04T05:51:56.729Z,90.20
2022-09-04T05:55:03.395Z,90.40
2022-09-04T05:58:05.424Z,90.40
2022-09-04T06:01:03.590Z,90.60
2022-09-04T06:04:04.414Z,90.10
2022-09-04T06:07:12.147Z,89.30
2022-09-04T06:10:14.813Z,89.80
2022-09-04T06:13:15.647Z,88.80
2022-09-04T06:16:15.943Z,87.60
2022-09-04T06:19:23.156Z,86.80
2022-09-04T06:22:26.392Z,87.80
2022-09-04T06:25:27.044Z,87.80
2022-09-04T06:28:16.455Z,89.90
2022-09-04T06:30:51.229Z,89.00
2022-09-04T06:33:50.927Z,89.00
2022-09-04T06:36:53.892Z,89.10
2022-09-04T07:21:43.125Z,91.40
2022-09-04T07:24:52.506Z,90.90
2022-09-04T07:27:54.895Z,90.70
2022-09-04T07:30:30.491Z,90.70
2022-09-04T07:33:12.624Z,90.30
2022-09-04T07:35:53.522Z,89.90
2022-09-04T07:38:50.834Z,90.20
2022-09-04T07:41:47.294Z,90.40
2022-09-04T07:44:56.605Z,89.60
2022-09-04T07:47:45.026Z,89.30
2022-09-04T07:50:28.435Z,90.10
2022-09-04T07:53:27.215Z,90.00
2022-09-04T07:56:06.241Z,90.30
2022-09-04T07:59:00.653Z,90.60
2022-09-04T08:02:09.052Z,90.60
2022-09-04T08:05:10.784Z,90.50
2022-09-04T08:08:18.281Z,90.90
2022-09-04T08:11:18.739Z,90.90
2022-09-04T08:14:08.940Z,91.20
2022-09-04T08:17:09.171Z,91.30
2022-09-04T08:20:12.903Z,91.50
2022-09-04T08:23:19.829Z,91.60
2022-09-04T08:26:13.133Z,91.60
2022-09-04T08:29:17.580Z,92.00
2022-09-04T08:32:20.862Z,91.70
2022-09-04T08:35:22.717Z,91.40
2022-09-04T08:38:24.883Z,91.30
2022-09-04T08:41:32.698Z,91.30
2022-09-04T08:44:24.780Z,91.80
2022-09-04T08:47:34.549Z,91.50
2022-09-04T08:50:37.468Z,91.70
2022-09-04T08:53:40.120Z,91.70
2022-09-04T08:56:29.117Z,92.00
2022-09-04T08:59:33.949Z,91.80
2022-09-04T09:02:34.745Z,91.90
2022-09-04T09:05:25.241Z,91.80
2022-09-04T09:08:31.758Z,91.70
2022-09-04T09:11:41.540Z,92.00
2022-09-04T09:14:38.105Z,91.90
2022-09-04T09:17:40.635Z,92.00
2022-09-04T09:20:33.320Z,91.90
2022-09-04T09:23:22.825Z,92.20
2022-09-04T09:26:08.750Z,92.20
2022-09-04T09:29:14.517Z,91.80
2022-09-04T09:32:14.254Z,92.20
2022-09-04T09:35:19.088Z,92.20
2022-09-04T09:38:20.408Z,92.90
2022-09-04T09:41:30.545Z,92.80
2022-09-04T09:55:57.051Z,94.40
2022-09-04T09:58:50.516Z,94.80
2022-09-04T10:01:58.381Z,94.30
2022-09-04T10:04:58.747Z,93.80
2022-09-04T10:07:51.603Z,93.40
2022-09-04T10:10:44.667Z,92.10
2022-09-04T10:13:52.208Z,91.60
2022-09-04T10:16:44.870Z,92.40
2022-09-04T10:19:42.964Z,92.90
2022-09-04T10:22:43.278Z,93.10
2022-09-04T10:25:33.804Z,93.00
2022-09-04T10:28:19.220Z,92.60
2022-09-04T10:31:24.121Z,93.00
2022-09-04T10:34:26.025Z,92.30
2022-09-04T10:37:35.297Z,92.60
2022-09-04T10:40:43.120Z,92.60
2022-09-04T10:43:45.883Z,93.00
2022-09-04T10:46:37.887Z,93.20
2022-09-04T10:49:33.283Z,92.30
2022-09-04T10:52:33.580Z,92.70
2022-09-04T10:55:38.593Z,92.30
2022-09-04T10:58:27.242Z,92.20
2022-09-04T11:01:29.569Z,92.40
2022-09-04T11:04:39.064Z,92.20
2022-09-04T11:07:18.908Z,92.20
2022-09-04T11:10:28.012Z,91.00
2022-09-04T11:13:29.296Z,91.10
2022-09-04T11:16:27.893Z,91.40
2022-09-04T11:19:30.925Z,91.30
2022-09-04T11:22:30.063Z,91.30
2022-09-04T11:25:30.461Z,91.50
2022-09-04T11:28:16.275Z,91.70
2022-09-04T11:31:18.736Z,92.20
2022-09-04T11:34:22.203Z,92.70
2022-09-04T11:37:21.724Z,92.50
2022-09-04T11:40:03.670Z,92.60
2022-09-04T11:43:04.371Z,93.10
2022-09-04T11:46:02.659Z,93.00
2022-09-04T11:49:03.416Z,93.10
2022-09-04T11:52:06.069Z,92.80
2022-09-04T11:55:16.209Z,92.20
2022-09-04T11:58:17.812Z,92.30
2022-09-04T12:01:24.483Z,92.80
2022-09-04T12:04:27.800Z,93.20
2022-09-04T12:07:31.942Z,93.40
2022-09-04T12:10:45.588Z,93.60
2022-09-04T12:13:33.051Z,94.00
2022-09-04T12:16:35.273Z,94.30
2022-09-04T12:19:44.406Z,94.50
2022-09-04T12:22:43.333Z,94.50
2022-09-04T12:25:37.244Z,94.70
2022-09-04T12:28:39.832Z,95.00
2022-09-04T12:31:38.162Z,94.00
2022-09-04T12:34:28.103Z,93.80
2022-09-04T12:37:29.626Z,93.60
2022-09-04T12:40:31.461Z,93.70
2022-09-04T12:43:18.543Z,93.60
2022-09-04T12:46:19.413Z,93.70
2022-09-04T12:49:21.469Z,93.90
2022-09-04T12:52:30.583Z,93.90
2022-09-04T12:55:17.641Z,94.10
2022-09-04T12:58:20.816Z,94.10
2022-09-04T13:01:15.991Z,93.90
2022-09-04T13:04:16.922Z,93.90
2022-09-04T13:07:23.288Z,94.10
2022-09-04T13:10:23.210Z,94.20
2022-09-04T13:13:22.442Z,94.80
2022-09-04T13:16:22.493Z,94.50
2022-09-04T13:19:24.875Z,94.50
2022-09-04T13:22:33.452Z,94.40
2022-09-04T13:25:35.205Z,94.70
2022-09-04T13:28:31.279Z,94.70
2022-09-04T13:31:39.219Z,94.80
2022-09-04T13:34:35.319Z,95.00
2022-09-04T13:37:31.395Z,95.20
2022-09-04T13:40:16.626Z,95.50
2022-09-04T13:43:17.150Z,95.60
2022-09-04T13:45:54.022Z,96.00
2022-09-04T13:48:46.903Z,95.80
2022-09-04T13:51:25.765Z,95.30
2022-09-04T13:54:20.993Z,95.00
2022-09-04T13:57:12.745Z,95.30
2022-09-04T13:59:46.671Z,95.30
2022-09-04T14:02:30.810Z,95.40
2022-09-04T14:05:12.208Z,95.40
2022-09-04T14:07:46.455Z,95.50
2022-09-04T14:10:31.101Z,95.50
2022-09-04T14:13:27.633Z,95.50
2022-09-04T14:16:08.949Z,95.40
2022-09-04T14:19:15.828Z,95.80
2022-09-04T14:22:25.761Z,95.60
2022-09-04T14:25:22.470Z,95.50
2022-09-04T14:28:15.235Z,95.40
2022-09-04T14:31:03.340Z,95.50
2022-09-04T14:34:01.879Z,95.70
2022-09-04T14:36:58.553Z,96.00
2022-09-04T14:39:40.101Z,96.40
2022-09-04T14:42:22.151Z,96.70
2022-09-04T14:45:23.197Z,96.80
2022-09-04T14:47:57.947Z,96.90
2022-09-04T14:50:32.787Z,96.70
2022-09-04T14:53:08.126Z,96.60
2022-09-04T14:55:45.490Z,96.50
2022-09-04T14:58:32.045Z,96.20
2022-09-04T15:01:10.918Z,96.30
2022-09-04T15:04:08.232Z,96.30
2022-09-04T15:07:10.834Z,96.30
2022-09-04T15:09:45.740Z,96.40
2022-09-04T15:12:36.990Z,96.30
2022-09-04T15:15:21.952Z,96.20
2022-09-04T15:18:04.911Z,96.30
2022-09-04T15:20:41.305Z,96.60
2022-09-04T15:23:25.181Z,96.70
2022-09-04T15:26:12.925Z,96.80
2022-09-04T15:28:53.301Z,96.90
2022-09-04T15:31:34.875Z,97.10
2022-09-04T15:34:22.443Z,97.20
2022-09-04T15:36:53.293Z,97.20
2022-09-04T15:39:36.871Z,97.30
2022-09-04T15:42:13.829Z,97.30
2022-09-04T15:44:50.176Z,97.40
2022-09-04T15:47:50.270Z,97.60
2022-09-04T15:50:29.056Z,97.70
2022-09-04T15:53:23.890Z,97.80
2022-09-04T15:56:11.859Z,97.60
2022-09-04T15:59:09.141Z,97.70
2022-09-04T16:01:58.975Z,97.10
2022-09-04T16:04:44.670Z,96.70
2022-09-04T16:07:38.113Z,96.80
2022-09-04T16:10:28.028Z,96.80
2022-09-04T16:13:07.957Z,96.90
2022-09-04T16:15:47.089Z,97.00
2022-09-04T16:18:43.135Z,97.10
2022-09-04T16:21:28.124Z,97.10
2022-09-04T16:24:11.279Z,97.30
2022-09-04T16:26:42.149Z,97.40
2022-09-04T16:29:28.212Z,97.40
2022-09-04T16:32:02.011Z,97.40
2022-09-04T16:34:41.650Z,97.50
2022-09-04T16:37:25.263Z,97.60
2022-09-04T16:40:14.812Z,97.60
2022-09-04T16:42:55.811Z,97.50
2022-09-04T16:45:36.996Z,97.40
2022-09-04T16:48:34.789Z,97.30
2022-09-04T16:51:29.259Z,97.10
2022-09-04T16:54:33.805Z,97.20
2022-09-04T16:57:18.963Z,97.30
2022-09-04T16:59:59.220Z,97.80
2022-09-04T17:02:57.757Z,97.80
2022-09-04T17:05:51.477Z,97.80
2022-09-04T17:08:45.749Z,97.60
2022-09-04T17:11:55.730Z,97.70
2022-09-04T17:14:39.165Z,97.80
2022-09-04T17:17:31.131Z,97.80
2022-09-04T17:20:08.699Z,97.60
2022-09-04T17:28:57.865Z,97.40
2022-09-04T17:29:04.695Z,97.40
2022-09-04T17:29:36.054Z,97.00
2022-09-04T17:33:47.497Z,97.10
2022-09-04T17:40:37.721Z,97.10
2022-09-04T17:40:39.386Z,96.90
2022-09-04T17:42:06.776Z,97.40
2022-09-04T17:45:06.482Z,97.50
2022-09-04T17:47:44.661Z,97.40
2022-09-04T17:50:24.782Z,97.20
2022-09-04T17:53:29.818Z,97.30
2022-09-04T17:56:17.969Z,97.60
2022-09-04T17:59:09.255Z,97.70
2022-09-04T18:02:15.093Z,97.60
2022-09-04T18:05:02.165Z,97.80
2022-09-04T18:08:07.452Z,97.90
2022-09-04T18:11:00.730Z,97.90
2022-09-04T18:13:45.312Z,97.80
2022-09-04T18:16:47.628Z,97.80
2022-09-04T18:19:50.614Z,98.00
2022-09-04T18:22:33.883Z,98.00
2022-09-04T18:25:24.816Z,98.20
2022-09-04T18:28:12.223Z,98.10
2022-09-04T18:37:12.404Z,97.90
2022-09-04T18:37:25.130Z,98.10
2022-09-04T18:37:41.857Z,98.00
2022-09-04T18:41:49.489Z,97.90
2022-09-04T18:50:39.517Z,97.80
2022-09-04T18:50:43.934Z,97.90
2022-09-04T18:50:45.238Z,98.30
2022-09-04T18:52:30.214Z,98.60
2022-09-04T18:55:10.387Z,98.50
2022-09-04T18:57:50.197Z,98.60
2022-09-04T19:00:33.457Z,98.70
2022-09-04T19:03:25.357Z,98.70
2022-09-04T19:06:00.724Z,98.70
2022-09-04T19:08:36.758Z,98.90
2022-09-04T19:11:20.350Z,98.50
2022-09-04T19:14:14.682Z,98.60
2022-09-04T19:17:08.458Z,98.40
2022-09-04T19:19:56.759Z,98.20
2022-09-04T19:22:40.500Z,98.20
2022-09-04T19:25:30.401Z,98.30
2022-09-04T19:28:25.899Z,98.20
2022-09-04T19:31:04.724Z,98.30
2022-09-04T19:33:59.340Z,98.20
2022-09-04T19:36:48.827Z,98.40
2022-09-04T19:45:53.703Z,98.60
2022-09-04T19:46:18.138Z,98.80
2022-09-04T19:46:26.678Z,98.70
2022-09-04T19:53:19.942Z,98.60
2022-09-04T19:53:30.876Z,98.70
2022-09-04T19:55:24.947Z,98.60
2022-09-04T19:58:24.810Z,98.40
2022-09-04T20:01:01.460Z,98.50
2022-09-04T20:03:51.417Z,98.50
2022-09-04T20:06:25.010Z,98.50
2022-09-04T20:09:08.813Z,98.70
2022-09-04T20:11:55.004Z,98.50
2022-09-04T20:14:34.324Z,98.40
2022-09-04T20:17:37.300Z,98.40
2022-09-04T20:20:21.949Z,98.40
2022-09-04T20:23:00.912Z,98.40
2022-09-04T20:25:57.956Z,98.40
2022-09-04T20:28:57.642Z,98.40
2022-09-04T20:31:42.325Z,98.40
2022-09-04T20:34:41.621Z,98.60
2022-09-04T20:37:44.485Z,98.50
2022-09-04T20:40:39.561Z,98.40
2022-09-04T20:43:35.348Z,98.50
2022-09-04T20:49:49.291Z,98.50
2022-09-04T20:52:51.139Z,98.70
2022-09-04T20:53:10.564Z,98.70
2022-09-04T20:56:03.856Z,98.60
2022-09-04T21:03:14.759Z,99.10
2022-09-04T21:03:17.499Z,98.90
2022-09-04T21:05:26.339Z,98.90
2022-09-04T21:08:08.696Z,98.80
2022-09-04T21:11:02.345Z,98.70
2022-09-04T21:13:41.448Z,98.70
2022-09-04T21:16:47.682Z,98.70
2022-09-04T21:19:47.808Z,98.70
2022-09-04T21:22:46.947Z,98.90
2022-09-04T21:25:32.600Z,98.80
2022-09-04T21:28:33.700Z,98.70
2022-09-04T21:31:37.696Z,98.60
2022-09-04T21:34:43.819Z,98.50
2022-09-04T21:37:28.871Z,98.50
2022-09-04T21:40:49.668Z,98.50
2022-09-04T21:43:38.905Z,98.40
2022-09-04T21:46:48.286Z,98.50
2022-09-04T21:49:40.134Z,98.40
2022-09-04T21:52:41.164Z,98.20
2022-09-04T21:58:58.600Z,98.20
2022-09-04T22:02:30.816Z,98.30
2022-09-04T22:02:37.644Z,98.30
2022-09-04T22:05:33.411Z,98.20
2022-09-04T22:13:27.647Z,98.20
2022-09-04T22:13:44.166Z,98.10
2022-09-04T22:14:56.940Z,98.00
2022-09-04T22:17:59.408Z,98.00
2022-09-04T22:21:04.555Z,97.70
2022-09-04T22:24:06.131Z,97.70
2022-09-04T22:27:05.228Z,97.80
2022-09-04T22:30:09.681Z,97.80
2022-09-04T22:33:15.872Z,97.60
2022-09-04T22:36:16.164Z,97.40
2022-09-04T22:39:16.724Z,97.30
2022-09-04T22:42:08.354Z,97.80
2022-09-04T22:45:23.111Z,97.70
2022-09-04T22:48:32.224Z,98.10
2022-09-04T22:51:29.868Z,98.60
2022-09-04T22:54:28.088Z,98.60
2022-09-04T22:57:44.928Z,98.70
2022-09-04T23:00:22.438Z,99.00
2022-09-04T23:03:19.415Z,99.20
2022-09-04T23:06:30.749Z,99.30
2022-09-04T23:13:51.735Z,99.40
2022-09-04T23:13:54.053Z,99.40
2022-09-04T23:15:50.688Z,99.10
2022-09-04T23:23:03.082Z,99.20
2022-09-04T23:26:33.753Z,99.00
2022-09-04T23:26:45.515Z,99.10
2022-09-04T23:28:52.536Z,99.00
2022-09-04T23:32:05.396Z,98.90
2022-09-04T23:35:15.087Z,99.00
2022-09-04T23:38:16.099Z,99.10
2022-09-04T23:41:53.185Z,99.10
2022-09-04T23:44:53.821Z,98.70
2022-09-04T23:47:49.491Z,98.70
2022-09-04T23:50:40.441Z,99.10
2022-09-04T23:53:28.212Z,99.10
2022-09-04T23:56:15.094Z,99.00
2022-09-04T23:59:25.099Z,99.20
